Time;durP1;ratioP1;P1;durP2;ratioP2;P2;SDS_P1;SDS_P2;PMS_P1;PMS_P2;Temp;Humidity;BMP_temperature;BMP_pressure;BME280_temperature;BME280_humidity;BME280_pressure;Samples;Min_cycle;Max_cycle;Signal;HPM_P1;HPM_P2
2024/01/29 00:00:44;;;;;;;43.00;23.73;;;1.50;99.90;;;;;;10422793;28;20219;-87
2024/01/29 00:05:47;;;;;;;43.33;24.70;;;1.10;99.90;;;;;;10425045;28;20235;-87
2024/01/29 00:10:49;;;;;;;40.80;23.43;;;0.90;99.90;;;;;;10422812;28;20253;-87
2024/01/29 00:15:52;;;;;;;48.67;25.17;;;1.10;99.90;;;;;;10404577;28;20275;-86
2024/01/29 00:20:57;;;;;;;43.20;24.17;;;0.80;99.90;;;;;;10424294;28;20259;-87
2024/01/29 00:25:59;;;;;;;41.07;20.90;;;0.80;99.90;;;;;;10422534;28;20304;-86
2024/01/29 00:31:02;;;;;;;41.53;21.20;;;1.00;99.90;;;;;;10422275;28;20235;-86
2024/01/29 00:36:05;;;;;;;37.83;21.13;;;0.70;99.90;;;;;;10443233;28;20344;-86
2024/01/29 00:41:08;;;;;;;41.07;22.10;;;0.60;99.90;;;;;;10416968;28;20239;-86
2024/01/29 00:46:10;;;;;;;38.17;21.47;;;0.60;99.90;;;;;;10366892;28;20243;-86
2024/01/29 00:51:13;;;;;;;41.90;22.10;;;0.50;99.90;;;;;;10366585;28;20243;-86
2024/01/29 00:56:15;;;;;;;41.13;19.33;;;0.40;99.90;;;;;;10366119;28;20268;-85
2024/01/29 01:01:18;;;;;;;37.17;19.07;;;0.50;99.90;;;;;;10397996;28;20235;-83
2024/01/29 01:06:20;;;;;;;36.87;20.33;;;0.70;99.90;;;;;;10389424;28;20246;-81
2024/01/29 01:11:23;;;;;;;29.53;18.10;;;0.50;99.90;;;;;;10405930;28;20660;-81
2024/01/29 01:16:25;;;;;;;31.57;19.07;;;0.40;99.90;;;;;;10406957;28;20243;-82
2024/01/29 01:21:28;;;;;;;31.20;18.80;;;0.60;99.90;;;;;;10407204;28;20270;-82
2024/01/29 01:26:31;;;;;;;38.77;19.70;;;0.60;99.90;;;;;;10407416;28;20270;-82
2024/01/29 01:31:34;;;;;;;29.20;17.53;;;0.40;99.90;;;;;;10388824;28;20243;-83
2024/01/29 01:36:37;;;;;;;32.93;17.77;;;0.60;99.90;;;;;;10391136;28;20325;-83
2024/01/29 01:41:39;;;;;;;27.47;17.97;;;0.70;99.90;;;;;;10407223;28;20235;-83
2024/01/29 01:46:42;;;;;;;34.07;19.87;;;0.60;99.90;;;;;;10391957;28;20661;-83
2024/01/29 01:51:45;;;;;;;32.43;16.90;;;0.40;99.90;;;;;;10414560;28;20259;-83
2024/01/29 01:56:49;;;;;;;28.90;17.30;;;0.40;99.90;;;;;;10413865;28;20263;-83
2024/01/29 02:01:55;;;;;;;34.73;18.47;;;0.30;99.90;;;;;;10356350;28;20630;-83
2024/01/29 02:06:58;;;;;;;31.27;17.47;;;0.00;99.90;;;;;;10372879;28;20233;-83
2024/01/29 02:12:01;;;;;;;28.73;16.73;;;0.00;99.90;;;;;;10408323;28;20311;-83
2024/01/29 02:17:04;;;;;;;26.83;17.20;;;-0.20;99.90;;;;;;10412324;28;20314;-83
2024/01/29 02:22:06;;;;;;;34.37;16.57;;;0.10;99.90;;;;;;10413017;28;20252;-84
2024/01/29 02:27:09;;;;;;;29.97;18.77;;;0.60;99.90;;;;;;10395237;28;20244;-84
2024/01/29 02:32:11;;;;;;;30.30;16.73;;;1.10;99.90;;;;;;10418520;28;20265;-84
2024/01/29 02:37:14;;;;;;;30.07;17.57;;;1.30;99.90;;;;;;10442422;28;20312;-85
2024/01/29 02:42:18;;;;;;;32.60;16.93;;;1.50;99.90;;;;;;10453853;28;20751;-84
2024/01/29 02:47:20;;;;;;;25.67;14.73;;;1.30;99.90;;;;;;10446406;28;20236;-84
2024/01/29 02:52:23;;;;;;;26.90;16.53;;;1.60;99.90;;;;;;10411406;28;20241;-84
2024/01/29 02:57:25;;;;;;;26.97;16.47;;;1.90;99.90;;;;;;10443692;28;20296;-84
2024/01/29 03:02:28;;;;;;;25.17;16.13;;;1.30;99.90;;;;;;10451901;28;20244;-84
2024/01/29 03:07:30;;;;;;;26.23;15.97;;;1.50;99.90;;;;;;10449508;28;20231;-84
2024/01/29 03:12:33;;;;;;;29.77;16.90;;;1.40;99.90;;;;;;10432695;28;20233;-84
2024/01/29 03:17:35;;;;;;;26.60;16.50;;;1.20;99.90;;;;;;10429154;28;20309;-85
2024/01/29 03:22:38;;;;;;;23.67;16.00;;;0.90;99.90;;;;;;10428247;28;20219;-84
2024/01/29 03:27:40;;;;;;;27.17;16.07;;;0.90;99.90;;;;;;10425656;28;20298;-85
2024/01/29 03:32:43;;;;;;;27.17;16.60;;;0.60;99.90;;;;;;10430953;28;20282;-85
2024/01/29 03:37:48;;;;;;;22.60;15.03;;;0.60;99.90;;;;;;10426428;28;20254;-85
2024/01/29 03:42:50;;;;;;;25.17;15.77;;;0.40;99.90;;;;;;10435394;28;20222;-85
2024/01/29 03:47:52;;;;;;;25.30;16.07;;;0.40;99.90;;;;;;10449858;28;20242;-85
2024/01/29 03:52:55;;;;;;;22.50;13.63;;;0.40;99.90;;;;;;10449647;28;20231;-84
2024/01/29 03:57:58;;;;;;;22.53;14.20;;;0.70;99.90;;;;;;10410050;28;20787;-84
2024/01/29 04:03:03;;;;;;;26.40;14.87;;;1.30;99.90;;;;;;10431734;28;20298;-85
2024/01/29 04:08:06;;;;;;;25.60;15.57;;;1.70;99.90;;;;;;10407950;28;20316;-85
2024/01/29 04:13:09;;;;;;;25.80;16.37;;;1.70;99.90;;;;;;10408316;28;20290;-84
2024/01/29 04:18:11;;;;;;;29.53;16.10;;;1.70;99.90;;;;;;10407732;28;20256;-85
2024/01/29 04:23:14;;;;;;;26.73;16.13;;;1.60;99.90;;;;;;10389624;28;20232;-85
2024/01/29 04:28:16;;;;;;;26.00;15.93;;;1.40;99.90;;;;;;10406478;28;20224;-85
2024/01/29 04:33:19;;;;;;;27.70;16.80;;;1.40;99.90;;;;;;10407072;28;20250;-85
2024/01/29 04:38:21;;;;;;;24.93;15.87;;;1.10;99.90;;;;;;10407499;28;20271;-85
2024/01/29 04:43:24;;;;;;;29.93;16.20;;;1.40;99.90;;;;;;10407116;28;20236;-85
2024/01/29 04:48:27;;;;;;;22.63;14.83;;;1.30;99.90;;;;;;10406994;28;20675;-85
2024/01/29 04:53:29;;;;;;;24.00;14.33;;;0.90;99.90;;;;;;10406606;28;20638;-85
2024/01/29 04:58:32;;;;;;;28.57;16.87;;;0.90;99.90;;;;;;10390058;28;20326;-85
2024/01/29 05:03:35;;;;;;;25.87;15.73;;;1.00;99.90;;;;;;10406515;28;20922;-85
2024/01/29 05:08:38;;;;;;;30.20;15.80;;;1.20;99.90;;;;;;10406903;28;20297;-85
2024/01/29 05:13:42;;;;;;;23.43;15.33;;;1.30;99.90;;;;;;10406729;28;20247;-85
2024/01/29 05:18:47;;;;;;;24.50;15.33;;;1.20;99.90;;;;;;10388484;28;20287;-85
2024/01/29 05:23:50;;;;;;;25.90;15.33;;;1.20;99.90;;;;;;10404621;28;20264;-85
2024/01/29 05:28:53;;;;;;;27.63;16.43;;;1.80;99.90;;;;;;10414392;28;20235;-85
2024/01/29 05:33:56;;;;;;;30.87;17.83;;;1.80;99.90;;;;;;10446507;28;20235;-85
2024/01/29 05:38:59;;;;;;;26.77;15.93;;;1.40;99.90;;;;;;10453579;28;20865;-85
2024/01/29 05:44:01;;;;;;;24.57;14.73;;;1.40;99.90;;;;;;10455252;28;20273;-85
2024/01/29 05:49:04;;;;;;;28.10;17.60;;;0.80;99.90;;;;;;10440785;28;20267;-85
2024/01/29 05:54:07;;;;;;;27.93;17.77;;;1.10;99.90;;;;;;10413451;28;20619;-84
2024/01/29 05:59:09;;;;;;;22.03;14.67;;;1.30;99.90;;;;;;10418191;28;20255;-84
2024/01/29 06:04:12;;;;;;;23.73;14.23;;;1.50;99.90;;;;;;10412758;28;20213;-83
2024/01/29 06:09:15;;;;;;;29.03;18.97;;;1.70;99.90;;;;;;10394673;28;20231;-85
2024/01/29 06:14:18;;;;;;;38.07;23.57;;;1.70;99.90;;;;;;10412456;28;20237;-84
2024/01/29 06:19:20;;;;;;;34.47;22.70;;;1.60;99.90;;;;;;10412965;28;20826;-84
2024/01/29 06:24:24;;;;;;;27.63;17.83;;;1.40;99.90;;;;;;10412026;28;20252;-83
2024/01/29 06:29:27;;;;;;;27.90;18.63;;;1.50;99.90;;;;;;10420381;28;20237;-84
2024/01/29 06:34:31;;;;;;;24.17;16.23;;;1.80;99.90;;;;;;10411763;28;20234;-84
2024/01/29 06:39:34;;;;;;;33.97;20.10;;;2.50;99.90;;;;;;10412324;28;20261;-85
2024/01/29 06:44:37;;;;;;;35.33;22.77;;;4.60;99.90;;;;;;10411658;28;20265;-85
2024/01/29 06:49:39;;;;;;;32.17;22.10;;;5.00;99.90;;;;;;10417790;28;20238;-85
2024/01/29 06:54:42;;;;;;;31.90;20.50;;;4.40;99.90;;;;;;10450790;28;20242;-85
2024/01/29 06:59:44;;;;;;;28.17;18.57;;;3.30;99.90;;;;;;10450512;28;20296;-85
2024/01/29 07:04:47;;;;;;;33.90;21.30;;;2.40;99.90;;;;;;10452019;28;20268;-85
2024/01/29 07:09:54;;;;;;;34.10;19.30;;;2.60;99.90;;;;;;10451423;28;20295;-85
2024/01/29 07:14:57;;;;;;;36.70;22.97;;;2.40;99.90;;;;;;10434256;28;20237;-85
2024/01/29 07:19:59;;;;;;;34.67;19.23;;;2.60;99.90;;;;;;10432170;28;20281;-85
2024/01/29 07:25:02;;;;;;;35.00;22.07;;;2.10;99.90;;;;;;10410303;28;20666;-85
2024/01/29 07:30:05;;;;;;;36.50;23.10;;;2.40;99.90;;;;;;10421205;28;20687;-85
2024/01/29 07:35:08;;;;;;;38.60;24.03;;;2.60;99.90;;;;;;10441604;28;20697;-85
2024/01/29 07:40:11;;;;;;;40.03;25.30;;;2.90;99.90;;;;;;10427697;28;20266;-85
2024/01/29 07:45:15;;;;;;;42.10;25.47;;;3.20;99.90;;;;;;10446069;28;20233;-86
2024/01/29 07:50:17;;;;;;;38.03;24.30;;;3.10;99.90;;;;;;10449857;28;20246;-85
2024/01/29 07:55:22;;;;;;;34.57;20.90;;;3.20;99.90;;;;;;10444601;28;20312;-85
2024/01/29 08:00:24;;;;;;;28.97;18.53;;;2.90;99.90;;;;;;10408726;28;20721;-86
2024/01/29 08:05:27;;;;;;;34.20;22.80;;;3.50;99.90;;;;;;10409307;28;20241;-85
2024/01/29 08:10:29;;;;;;;43.23;26.10;;;3.90;99.90;;;;;;10414589;28;20288;-85
2024/01/29 08:15:32;;;;;;;42.47;26.80;;;3.70;99.90;;;;;;10403298;28;20297;-85
2024/01/29 08:20:35;;;;;;;40.00;25.77;;;3.90;99.90;;;;;;10396665;28;20254;-85
2024/01/29 08:25:38;;;;;;;35.30;22.07;;;3.60;99.90;;;;;;10416278;28;20262;-85
2024/01/29 08:30:40;;;;;;;35.90;22.27;;;3.40;99.90;;;;;;10389711;28;20321;-85
2024/01/29 08:35:42;;;;;;;31.53;20.20;;;4.00;99.90;;;;;;10406884;28;20702;-85
2024/01/29 08:40:45;;;;;;;29.67;19.57;;;4.50;99.90;;;;;;10407055;28;20797;-85
2024/01/29 08:45:48;;;;;;;34.27;20.97;;;4.20;99.90;;;;;;10406558;28;20222;-85
2024/01/29 08:50:51;;;;;;;27.90;17.50;;;4.60;99.90;;;;;;10390164;28;20247;-86
2024/01/29 08:55:53;;;;;;;37.43;22.00;;;4.70;99.90;;;;;;10406969;28;20243;-85
2024/01/29 09:00:56;;;;;;;32.70;19.60;;;4.80;99.90;;;;;;10432088;28;20736;-85
2024/01/29 09:05:59;;;;;;;34.53;22.57;;;5.00;99.90;;;;;;10431294;28;20796;-85
2024/01/29 09:11:02;;;;;;;35.20;20.63;;;4.80;99.90;;;;;;10446322;28;20242;-86
2024/01/29 09:16:05;;;;;;;31.40;19.67;;;4.80;99.90;;;;;;10389621;28;20253;-85
2024/01/29 09:21:09;;;;;;;33.17;22.27;;;4.50;99.90;;;;;;10411912;28;20315;-85
2024/01/29 09:26:12;;;;;;;34.20;20.33;;;4.40;99.90;;;;;;10429119;28;20293;-85
2024/01/29 09:31:14;;;;;;;35.07;22.10;;;4.90;99.90;;;;;;10436924;28;20234;-85
2024/01/29 09:36:17;;;;;;;35.33;22.07;;;5.30;99.90;;;;;;10429309;28;20214;-85
2024/01/29 09:41:19;;;;;;;38.03;20.53;;;5.10;99.90;;;;;;10446065;28;20306;-85
2024/01/29 09:46:23;;;;;;;30.67;20.67;;;5.00;99.90;;;;;;10447603;28;20255;-84
2024/01/29 09:51:27;;;;;;;36.10;23.63;;;5.20;99.90;;;;;;10425826;28;20234;-84
2024/01/29 09:56:29;;;;;;;33.80;21.60;;;5.50;99.90;;;;;;10405904;28;20382;-85
2024/01/29 10:01:33;;;;;;;37.50;24.63;;;5.80;99.90;;;;;;10423988;28;20664;-85
2024/01/29 10:06:36;;;;;;;36.53;23.50;;;5.40;99.90;;;;;;10414616;28;20230;-84
2024/01/29 10:11:39;;;;;;;40.23;24.93;;;5.50;99.90;;;;;;10396114;28;20624;-84
2024/01/29 10:16:42;;;;;;;36.40;22.37;;;5.60;99.90;;;;;;10394567;28;20234;-84
2024/01/29 10:21:48;;;;;;;34.83;19.43;;;5.70;99.90;;;;;;10389730;28;20261;-85
2024/01/29 10:26:50;;;;;;;26.30;17.57;;;5.80;99.90;;;;;;10444568;28;20630;-85
2024/01/29 10:31:58;;;;;;;29.20;16.97;;;5.80;99.90;;;;;;10417401;28;20290;-85
2024/01/29 10:37:03;;;;;;;34.50;21.07;;;6.40;99.90;;;;;;10444630;28;20257;-85
2024/01/29 10:42:08;;;;;;;37.33;23.83;;;6.90;99.90;;;;;;10443485;28;20679;-85
2024/01/29 10:47:21;;;;;;;32.70;20.37;;;6.40;99.90;;;;;;10428549;28;20222;-86
2024/01/29 10:52:24;;;;;;;40.63;24.80;;;6.10;99.90;;;;;;10432032;28;20271;-85
2024/01/29 10:57:29;;;;;;;41.23;24.50;;;6.00;99.90;;;;;;10448366;28;20304;-85
2024/01/29 11:02:32;;;;;;;39.90;24.20;;;6.00;99.90;;;;;;10442367;28;20238;-83
2024/01/29 11:07:36;;;;;;;30.33;18.30;;;6.30;99.90;;;;;;10412852;28;20283;-86
2024/01/29 11:12:40;;;;;;;41.03;24.90;;;7.40;99.90;;;;;;10435977;28;20258;-85
2024/01/29 11:17:43;;;;;;;36.47;23.13;;;7.70;99.90;;;;;;10410098;28;20262;-86
2024/01/29 11:22:53;;;;;;;40.43;23.67;;;7.50;99.90;;;;;;10410527;28;20242;-86
2024/01/29 11:27:56;;;;;;;39.73;24.97;;;7.20;99.90;;;;;;10392278;28;20247;-86
2024/01/29 11:33:17;;;;;;;39.80;24.40;;;7.10;99.90;;;;;;10410524;28;20637;-85
2024/01/29 11:38:22;;;;;;;42.93;24.23;;;6.60;99.90;;;;;;10410496;28;20316;-85
2024/01/29 11:43:25;;;;;;;36.87;22.00;;;6.90;99.90;;;;;;10409820;28;20296;-85
2024/01/29 11:48:27;;;;;;;37.77;22.20;;;6.70;99.90;;;;;;10408902;28;20643;-85
2024/01/29 11:53:30;;;;;;;33.67;19.83;;;7.10;99.90;;;;;;10419157;28;20300;-85
2024/01/29 11:58:33;;;;;;;37.83;22.50;;;7.10;99.90;;;;;;10431986;28;20273;-85
2024/01/29 12:03:36;;;;;;;36.90;23.50;;;7.30;99.90;;;;;;10450716;28;20227;-85
2024/01/29 12:08:46;;;;;;;39.43;22.13;;;7.40;99.90;;;;;;10450071;28;20294;-85
2024/01/29 12:13:50;;;;;;;44.97;23.67;;;6.90;99.90;;;;;;10432584;28;20232;-85
2024/01/29 12:18:54;;;;;;;36.43;23.63;;;7.30;99.90;;;;;;10448662;28;20259;-85
2024/01/29 12:23:59;;;;;;;36.70;22.30;;;7.00;99.90;;;;;;10430431;28;20642;-85
2024/01/29 12:29:02;;;;;;;36.53;21.83;;;7.10;99.90;;;;;;10448680;28;20245;-85
2024/01/29 12:34:07;;;;;;;39.87;23.03;;;7.00;99.90;;;;;;10449420;28;20825;-85
2024/01/29 12:39:11;;;;;;;39.17;24.23;;;7.10;99.90;;;;;;10447041;28;20267;-85
2024/01/29 12:44:15;;;;;;;33.53;17.57;;;6.90;99.90;;;;;;10448617;28;20230;-82
2024/01/29 12:49:18;;;;;;;39.33;22.50;;;7.40;99.90;;;;;;10408026;28;20692;-82
2024/01/29 12:54:21;;;;;;;35.33;21.03;;;7.50;99.90;;;;;;10389465;28;20308;-82
2024/01/29 12:59:23;;;;;;;34.83;20.50;;;7.30;99.90;;;;;;10389970;28;20734;-82
2024/01/29 13:04:26;;;;;;;36.33;21.00;;;7.50;99.90;;;;;;10410282;28;20230;-83
2024/01/29 13:09:29;;;;;;;36.77;20.53;;;7.50;99.90;;;;;;10446965;28;20361;-82
2024/01/29 13:14:31;;;;;;;30.93;16.93;;;7.70;99.90;;;;;;10418133;28;20195;-83
2024/01/29 13:19:35;;;;;;;38.47;19.47;;;7.50;99.90;;;;;;10441630;28;20284;-82
2024/01/29 13:24:37;;;;;;;36.13;21.30;;;7.60;99.90;;;;;;10447206;28;20633;-83
2024/01/29 13:29:40;;;;;;;32.90;18.47;;;7.40;99.90;;;;;;10448390;28;20230;-82
2024/01/29 13:34:42;;;;;;;35.67;21.17;;;7.70;99.90;;;;;;10431056;28;20300;-82
2024/01/29 13:39:46;;;;;;;37.80;18.93;;;7.50;99.90;;;;;;10446630;28;20353;-80
2024/01/29 13:44:48;;;;;;;34.60;19.67;;;7.50;99.90;;;;;;10436830;28;20226;-82
2024/01/29 13:49:51;;;;;;;29.13;17.83;;;7.50;99.90;;;;;;10452331;28;20234;-81
2024/01/29 13:54:55;;;;;;;36.40;20.33;;;7.80;99.90;;;;;;10454437;28;20247;-82
2024/01/29 14:00:03;;;;;;;31.03;19.63;;;7.70;99.90;;;;;;10416631;28;20262;-82
2024/01/29 14:05:05;;;;;;;38.10;22.17;;;7.40;99.90;;;;;;10455557;28;20236;-82
2024/01/29 14:10:11;;;;;;;33.50;20.30;;;7.30;99.90;;;;;;10454698;28;20256;-82
2024/01/29 14:15:14;;;;;;;37.00;20.27;;;7.30;99.90;;;;;;10416754;28;20296;-82
2024/01/29 14:20:16;;;;;;;38.57;22.17;;;7.30;99.90;;;;;;10417294;28;20246;-82
2024/01/29 14:25:19;;;;;;;33.17;20.50;;;7.30;99.90;;;;;;10454651;28;20254;-81
2024/01/29 14:30:22;;;;;;;39.27;21.60;;;7.20;99.90;;;;;;10452229;28;20296;-82
2024/01/29 14:35:24;;;;;;;29.57;16.50;;;7.10;99.90;;;;;;10442142;28;20250;-81
2024/01/29 14:40:27;;;;;;;35.37;19.30;;;7.20;99.90;;;;;;10415252;28;20259;-82
2024/01/29 14:45:30;;;;;;;26.50;16.53;;;7.40;99.90;;;;;;10415548;28;20620;-82
2024/01/29 14:50:34;;;;;;;41.00;22.80;;;7.50;99.90;;;;;;10404634;28;20618;-82
2024/01/29 14:55:37;;;;;;;33.47;17.73;;;7.50;99.90;;;;;;10462676;28;20450;-83
2024/01/29 15:00:40;;;;;;;29.33;17.60;;;7.40;99.90;;;;;;10491375;28;20203;-82
2024/01/29 15:05:44;;;;;;;36.00;19.70;;;7.40;99.90;;;;;;10506876;28;20203;-83
2024/01/29 15:10:52;;;;;;;40.43;21.40;;;7.40;99.90;;;;;;10464898;28;20219;-82
2024/01/29 15:15:55;;;;;;;27.73;15.63;;;7.50;99.90;;;;;;10465264;28;20187;-82
2024/01/29 15:20:58;;;;;;;25.93;15.33;;;7.00;99.90;;;;;;10471213;28;20226;-83
2024/01/29 15:26:00;;;;;;;31.07;18.83;;;6.30;99.90;;;;;;10464529;28;20211;-83
2024/01/29 15:31:03;;;;;;;26.70;17.27;;;7.00;99.90;;;;;;10467006;28;20234;-82
2024/01/29 15:36:06;;;;;;;33.43;21.63;;;6.90;99.90;;;;;;10502548;28;20175;-82
2024/01/29 15:41:16;;;;;;;26.90;16.60;;;6.80;99.90;;;;;;10476167;28;20258;-82
2024/01/29 15:46:19;;;;;;;34.47;20.50;;;7.20;99.90;;;;;;10494474;28;20187;-81
2024/01/29 15:51:22;;;;;;;40.63;21.83;;;6.90;99.90;;;;;;10481164;28;20187;-81
2024/01/29 15:56:30;;;;;;;43.63;26.83;;;6.60;99.90;;;;;;10476313;28;20198;-81
2024/01/29 16:01:32;;;;;;;69.20;36.33;;;6.40;99.90;;;;;;10434740;28;20322;-81
2024/01/29 16:06:35;;;;;;;49.37;28.00;;;6.10;99.90;;;;;;10448922;28;20207;-81
2024/01/29 16:11:37;;;;;;;91.07;48.27;;;6.30;99.90;;;;;;10451398;28;20210;-81
2024/01/29 16:16:40;;;;;;;85.07;43.30;;;6.10;99.90;;;;;;10451699;28;20181;-81
2024/01/29 16:21:42;;;;;;;73.33;39.40;;;5.80;99.90;;;;;;10452604;28;20707;-80
2024/01/29 16:26:47;;;;;;;56.07;31.77;;;5.70;99.90;;;;;;10452196;28;20231;-79
2024/01/29 16:31:52;;;;;;;46.13;27.07;;;5.90;99.90;;;;;;10434719;28;20190;-82
2024/01/29 16:36:56;;;;;;;111.60;60.90;;;6.90;99.90;;;;;;10488847;28;20230;-83
2024/01/29 16:41:59;;;;;;;102.87;57.57;;;7.30;99.90;;;;;;10499946;28;20230;-82
2024/01/29 16:47:02;;;;;;;91.83;54.00;;;5.60;99.90;;;;;;10477575;28;20226;-82
2024/01/29 16:52:06;;;;;;;68.23;44.40;;;4.10;99.90;;;;;;10429341;28;20191;-82
2024/01/29 16:57:11;;;;;;;138.17;72.57;;;3.40;99.90;;;;;;10448882;28;20235;-82
2024/01/29 17:02:17;;;;;;;108.03;56.03;;;3.00;99.90;;;;;;10443990;28;20202;-82
2024/01/29 17:07:20;;;;;;;86.10;48.33;;;2.80;99.90;;;;;;10443174;28;20183;-83
2024/01/29 17:12:23;;;;;;;88.43;46.67;;;2.70;99.90;;;;;;10463373;28;20212;-83
2024/01/29 17:17:26;;;;;;;111.90;56.40;;;2.40;99.90;;;;;;10449050;28;20191;-82
2024/01/29 17:22:28;;;;;;;155.57;76.40;;;2.40;99.90;;;;;;10451889;28;20262;-82
2024/01/29 17:27:31;;;;;;;111.20;55.17;;;2.50;99.90;;;;;;10469355;28;20207;-83
2024/01/29 17:32:34;;;;;;;66.80;37.63;;;2.50;99.90;;;;;;10481975;28;20202;-82
2024/01/29 17:37:36;;;;;;;72.10;37.80;;;2.80;99.90;;;;;;10457388;28;20235;-80
2024/01/29 17:42:39;;;;;;;83.60;41.03;;;3.00;99.90;;;;;;10452102;28;20211;-80
2024/01/29 17:47:44;;;;;;;102.00;52.47;;;2.70;99.90;;;;;;10491339;28;20217;-81
2024/01/29 17:52:46;;;;;;;64.93;31.30;;;2.40;99.90;;;;;;10456212;28;20199;-81
2024/01/29 17:57:49;;;;;;;101.10;53.13;;;2.70;99.90;;;;;;10447029;28;20195;-80
2024/01/29 18:02:51;;;;;;;76.57;37.80;;;3.50;99.90;;;;;;10461355;28;20231;-80
2024/01/29 18:07:54;;;;;;;71.87;35.73;;;3.70;99.90;;;;;;10449929;28;20608;-80
2024/01/29 18:12:57;;;;;;;62.53;31.60;;;3.80;99.90;;;;;;10454877;28;20647;-81
2024/01/29 18:18:02;;;;;;;57.93;34.23;;;4.30;99.90;;;;;;10452421;28;20204;-82
2024/01/29 18:23:08;;;;;;;55.43;31.90;;;4.30;99.90;;;;;;10402896;28;20257;-81
2024/01/29 18:28:10;;;;;;;56.53;32.13;;;4.10;99.90;;;;;;10431765;28;20204;-82
2024/01/29 18:33:13;;;;;;;69.33;37.17;;;4.60;99.90;;;;;;10442238;28;20287;-81
2024/01/29 18:38:15;;;;;;;48.40;29.03;;;4.80;99.90;;;;;;10434988;28;20264;-80
2024/01/29 18:43:18;;;;;;;51.87;29.47;;;5.00;99.90;;;;;;10425941;28;20231;-81
2024/01/29 18:48:21;;;;;;;68.07;37.43;;;5.40;99.90;;;;;;10444624;28;20199;-81
2024/01/29 18:53:27;;;;;;;60.37;32.13;;;6.00;99.90;;;;;;10444615;28;20254;-80
2024/01/29 18:58:35;;;;;;;65.93;37.03;;;5.60;99.90;;;;;;10432520;28;20236;-80
2024/01/29 19:03:38;;;;;;;59.17;32.33;;;5.40;99.90;;;;;;10438515;28;20199;-81
2024/01/29 19:08:41;;;;;;;62.57;34.00;;;4.40;99.90;;;;;;10426301;28;20184;-81
2024/01/29 19:13:43;;;;;;;63.33;38.20;;;3.90;99.90;;;;;;10454668;28;20230;-80
2024/01/29 19:18:46;;;;;;;74.70;48.23;;;3.00;99.90;;;;;;10464893;28;20626;-80
2024/01/29 19:23:49;;;;;;;94.30;56.43;;;2.00;99.90;;;;;;10461307;28;20777;-80
2024/01/29 19:28:51;;;;;;;94.20;53.93;;;1.60;99.90;;;;;;10428819;28;20729;-81
2024/01/29 19:33:53;;;;;;;54.07;28.77;;;1.30;99.90;;;;;;10427712;28;20653;-83
2024/01/29 19:38:56;;;;;;;65.47;37.57;;;1.20;99.90;;;;;;10456940;28;20239;-81
2024/01/29 19:43:59;;;;;;;77.93;43.53;;;1.50;99.90;;;;;;10452651;28;20254;-82
2024/01/29 19:49:02;;;;;;;49.87;23.97;;;1.50;99.90;;;;;;10402448;28;20190;-81
2024/01/29 19:54:05;;;;;;;121.33;62.97;;;1.70;99.90;;;;;;10450338;28;20228;-83
2024/01/29 19:59:08;;;;;;;115.77;57.87;;;1.80;99.90;;;;;;10454490;28;20214;-83
2024/01/29 20:04:11;;;;;;;111.10;58.13;;;1.30;99.90;;;;;;10424182;28;20192;-84
2024/01/29 20:09:14;;;;;;;111.33;56.00;;;1.10;99.90;;;;;;10447568;28;20203;-81
2024/01/29 20:14:16;;;;;;;83.60;45.43;;;0.90;99.90;;;;;;10447919;28;20191;-83
2024/01/29 20:19:20;;;;;;;85.57;47.50;;;0.90;99.90;;;;;;10432195;28;20207;-84
2024/01/29 20:24:22;;;;;;;78.33;46.13;;;1.00;99.90;;;;;;10430209;28;20258;-82
2024/01/29 20:29:25;;;;;;;68.43;44.10;;;0.80;99.90;;;;;;10430455;28;20211;-81
2024/01/29 20:34:28;;;;;;;82.43;47.50;;;0.70;99.90;;;;;;10432601;28;20207;-82
2024/01/29 20:39:31;;;;;;;79.87;45.37;;;0.90;99.90;;;;;;10436951;28;20218;-83
2024/01/29 20:44:33;;;;;;;77.80;45.50;;;0.70;99.90;;;;;;10431990;28;20234;-84
2024/01/29 20:49:36;;;;;;;70.60;41.73;;;0.90;99.90;;;;;;10422292;28;20615;-84
2024/01/29 20:54:38;;;;;;;76.17;46.07;;;0.90;99.90;;;;;;10405780;28;20307;-84
2024/01/29 20:59:41;;;;;;;69.30;41.77;;;0.70;99.90;;;;;;10427656;28;20215;-83
2024/01/29 21:04:44;;;;;;;72.93;43.17;;;0.80;99.90;;;;;;10424628;28;20202;-83
2024/01/29 21:09:47;;;;;;;90.33;48.17;;;0.60;99.90;;;;;;10409242;28;20245;-84
2024/01/29 21:14:50;;;;;;;89.60;48.57;;;0.40;99.90;;;;;;10463626;28;20198;-83
2024/01/29 21:19:52;;;;;;;72.50;42.37;;;0.50;99.90;;;;;;10469864;28;20220;-84
2024/01/29 21:24:55;;;;;;;67.17;38.63;;;0.40;99.90;;;;;;10420150;28;20356;-83
2024/01/29 21:29:58;;;;;;;46.17;22.90;;;0.60;99.90;;;;;;10415600;28;20559;-82
2024/01/29 21:35:01;;;;;;;32.60;16.70;;;0.40;99.90;;;;;;10423095;28;20192;-84
2024/01/29 21:40:04;;;;;;;52.37;29.87;;;0.50;99.90;;;;;;10420541;28;20582;-83
2024/01/29 21:45:07;;;;;;;53.97;27.77;;;0.70;99.90;;;;;;10400478;28;20199;-86
2024/01/29 21:50:10;;;;;;;33.87;19.07;;;0.90;99.90;;;;;;10413377;28;20200;-86
2024/01/29 21:55:12;;;;;;;38.47;20.83;;;0.80;99.90;;;;;;10429660;28;20297;-85
2024/01/29 22:00:15;;;;;;;71.07;38.40;;;1.10;99.90;;;;;;10434703;28;20287;-85
2024/01/29 22:05:18;;;;;;;96.73;49.57;;;0.60;99.90;;;;;;10427100;28;20203;-86
2024/01/29 22:10:20;;;;;;;91.87;49.67;;;0.70;99.90;;;;;;10430387;28;20211;-85
2024/01/29 22:15:23;;;;;;;53.80;28.87;;;0.40;99.90;;;;;;10445174;28;20207;-87
2024/01/29 22:20:25;;;;;;;65.97;35.53;;;0.80;99.90;;;;;;10429718;28;20310;-87
2024/01/29 22:25:28;;;;;;;70.87;38.27;;;0.80;99.90;;;;;;10416096;28;20283;-86
2024/01/29 22:30:32;;;;;;;39.73;22.10;;;0.60;99.90;;;;;;10401037;28;20235;-87
2024/01/29 22:35:34;;;;;;;67.90;36.67;;;0.70;99.90;;;;;;10433100;28;20228;-86
2024/01/29 22:40:37;;;;;;;67.13;37.07;;;0.60;99.90;;;;;;10430964;28;20280;-86
2024/01/29 22:45:39;;;;;;;64.53;34.37;;;0.30;99.90;;;;;;10437913;28;20199;-85
2024/01/29 22:50:42;;;;;;;66.47;34.97;;;0.20;99.90;;;;;;10439665;28;20211;-86
2024/01/29 22:55:44;;;;;;;59.03;31.40;;;0.20;99.90;;;;;;10447725;28;20207;-86
2024/01/29 23:00:48;;;;;;;53.77;29.00;;;0.30;99.90;;;;;;10442252;28;20215;-86
2024/01/29 23:05:53;;;;;;;51.73;27.63;;;0.20;99.90;;;;;;10431722;28;20194;-86
2024/01/29 23:10:55;;;;;;;50.47;27.10;;;0.40;99.90;;;;;;10452056;28;20203;-86
2024/01/29 23:15:58;;;;;;;57.13;30.77;;;0.40;99.90;;;;;;10421139;28;20766;-86
2024/01/29 23:21:01;;;;;;;56.73;28.80;;;0.40;99.90;;;;;;10429214;28;20218;-86
2024/01/29 23:26:04;;;;;;;47.20;25.67;;;0.40;99.90;;;;;;10442395;28;20286;-86
2024/01/29 23:31:06;;;;;;;45.20;26.93;;;0.70;99.90;;;;;;10441155;28;20617;-86
2024/01/29 23:36:11;;;;;;;49.70;27.17;;;1.00;99.90;;;;;;10433073;28;20596;-86
2024/01/29 23:41:14;;;;;;;50.83;27.13;;;0.70;99.90;;;;;;10440234;28;20313;-86
2024/01/29 23:46:16;;;;;;;47.13;27.40;;;0.80;99.90;;;;;;10410897;28;20189;-86
2024/01/29 23:51:19;;;;;;;37.93;20.70;;;0.70;99.90;;;;;;10373211;28;20204;-86
2024/01/29 23:56:21;;;;;;;36.53;19.70;;;0.80;99.90;;;;;;10372947;28;20216;-86
